Time;durP1;ratioP1;P1;durP2;ratioP2;P2;SDS_P1;SDS_P2;PMS_P1;PMS_P2;Temp;Humidity;BMP_temperature;BMP_pressure;BME280_temperature;BME280_humidity;BME280_pressure;Samples;Min_cycle;Max_cycle;Signal;HPM_P1;HPM_P2
2022/06/08 00:00:33;;;;;;;4.08;3.10;;;;;;;18.18;56.98;99230.52;1749760;82;21029;-42
2022/06/08 00:03:05;;;;;;;4.67;3.05;;;;;;;18.13;57.21;99229.59;1750898;82;23091;-41
2022/06/08 00:05:33;;;;;;;6.33;3.12;;;;;;;18.09;56.98;99229.47;1751219;82;20986;-42
2022/06/08 00:07:59;;;;;;;4.58;3.50;;;;;;;18.05;57.23;99233.64;1715044;83;21083;-42
2022/06/08 00:10:27;;;;;;;3.40;2.85;;;;;;;18.03;57.32;99240.71;1751152;82;21617;-42
2022/06/08 00:12:55;;;;;;;4.35;2.83;;;;;;;17.99;57.82;99238.61;1715090;83;20928;-42
2022/06/08 00:15:26;;;;;;;4.67;3.08;;;;;;;17.96;57.63;99232.59;1714963;83;21016;-42
2022/06/08 00:17:53;;;;;;;4.92;3.12;;;;;;;17.94;57.48;99234.95;1750756;81;21025;-41
2022/06/08 00:20:20;;;;;;;7.78;2.90;;;;;;;17.92;56.88;99232.61;1750879;82;21045;-42
2022/06/08 00:22:49;;;;;;;3.92;2.52;;;;;;;17.94;57.13;99230.84;1714755;83;20985;-42
2022/06/08 00:25:17;;;;;;;3.20;2.75;;;;;;;17.94;57.40;99229.47;1714794;83;21054;-41
2022/06/08 00:27:45;;;;;;;4.25;2.80;;;;;;;17.94;57.05;99232.21;1714831;83;21885;-42
2022/06/08 00:30:13;;;;;;;6.28;3.17;;;;;;;17.93;57.01;99230.06;1714650;83;21028;-42
2022/06/08 00:32:42;;;;;;;3.45;2.60;;;;;;;17.92;57.08;99224.39;1751097;82;21017;-42
2022/06/08 00:35:09;;;;;;;4.70;3.08;;;;;;;17.92;57.47;99225.76;1750734;82;21574;-42
2022/06/08 00:37:36;;;;;;;5.78;3.00;;;;;;;17.90;57.43;99229.52;1750882;82;20998;-41
2022/06/08 00:40:05;;;;;;;5.15;3.27;;;;;;;17.89;57.61;99229.92;1750885;82;21121;-41
2022/06/08 00:42:33;;;;;;;4.87;2.90;;;;;;;17.88;57.61;99228.36;1714998;83;21460;-42
2022/06/08 00:45:08;;;;;;;3.12;2.83;;;;;;;17.86;57.90;99225.27;1731730;82;22162;-41
2022/06/08 00:47:42;;;;;;;4.33;3.17;;;;;;;17.81;57.89;99223.14;1751032;82;21009;-41
2022/06/08 00:50:21;;;;;;;3.92;2.65;;;;;;;17.78;57.95;99222.61;1750697;81;20973;-42
2022/06/08 00:52:49;;;;;;;3.42;2.87;;;;;;;17.75;58.04;99217.95;1750805;82;21273;-41
2022/06/08 00:55:17;;;;;;;4.05;3.00;;;;;;;17.72;57.93;99218.75;1686452;83;21024;-42
2022/06/08 00:57:53;;;;;;;5.60;2.93;;;;;;;17.72;57.78;99220.12;1751538;82;21060;-42
2022/06/08 01:00:25;;;;;;;4.85;2.75;;;;;;;17.71;57.41;99213.11;1714594;83;20968;-42
2022/06/08 01:02:53;;;;;;;3.05;2.67;;;;;;;17.68;58.12;99215.87;1715064;83;21032;-42
2022/06/08 01:05:35;;;;;;;4.17;2.83;;;;;;;17.38;58.95;99176.84;1715241;83;21315;-42
2022/06/08 01:08:40;;;;;;;3.67;2.35;;;;;;;17.67;59.52;99211.60;1750990;81;21027;-42
2022/06/08 01:11:39;;;;;;;3.70;2.52;;;;;;;17.72;59.80;99217.38;1750823;82;21563;-42
2022/06/08 01:14:11;;;;;;;7.70;2.83;;;;;;;17.76;59.08;99213.25;1715004;83;21530;-42
2022/06/08 01:16:41;;;;;;;4.10;3.08;;;;;;;17.75;58.76;99214.44;1750985;81;21088;-42
2022/06/08 01:19:08;;;;;;;3.35;2.62;;;;;;;17.78;58.64;99215.75;1732071;82;21298;-42
2022/06/08 01:21:41;;;;;;;5.05;2.70;;;;;;;17.79;58.52;99214.57;1750739;81;21005;-42
2022/06/08 01:24:13;;;;;;;4.25;2.70;;;;;;;17.80;58.41;99218.88;1755756;81;20984;-42
2022/06/08 01:27:03;;;;;;;3.77;2.80;;;;;;;17.78;58.04;99217.13;1756085;81;21076;-42
2022/06/08 01:29:54;;;;;;;5.12;2.65;;;;;;;17.76;58.13;99212.66;1720041;83;21510;-42
2022/06/08 01:32:42;;;;;;;3.90;2.45;;;;;;;17.73;58.42;99214.05;1719387;83;21322;-41
2022/06/08 01:37:48;;;;;;;3.05;2.70;;;;;;;17.70;60.02;99212.14;1782316;79;22694;-42
2022/06/08 01:40:21;;;;;;;4.08;2.90;;;;;;;17.57;60.27;99215.97;1755101;81;21367;-42
2022/06/08 01:43:28;;;;;;;5.08;3.10;;;;;;;17.55;59.86;99211.50;1755034;81;21133;-42
2022/06/08 01:46:19;;;;;;;4.80;2.58;;;;;;;17.50;59.88;99209.21;1755007;81;20923;-42
2022/06/08 01:49:24;;;;;;;3.70;2.80;;;;;;;17.42;60.13;99210.48;1741465;81;21014;-41
2022/06/08 01:52:29;;;;;;;5.05;3.08;;;;;;;17.36;60.02;99208.78;1755083;81;21047;-42
2022/06/08 01:55:13;;;;;;;4.33;3.10;;;;;;;17.32;60.10;99210.02;1754878;81;20989;-41
2022/06/08 01:57:55;;;;;;;3.98;2.72;;;;;;;17.25;60.04;99211.44;1755120;81;22003;-42
2022/06/08 02:00:32;;;;;;;4.47;3.15;;;;;;;17.22;60.17;99209.53;1733712;81;21062;-42
2022/06/08 02:03:08;;;;;;;2.98;2.67;;;;;;;17.19;60.25;99207.58;1755431;81;21607;-41
2022/06/08 02:05:58;;;;;;;3.55;2.52;;;;;;;17.16;60.31;99208.41;1755207;81;20958;-42
2022/06/08 02:08:41;;;;;;;2.80;2.50;;;;;;;17.18;60.29;99215.05;1754718;81;21065;-42
2022/06/08 02:11:23;;;;;;;4.40;2.55;;;;;;;17.21;60.14;99211.48;1755063;81;21154;-42
2022/06/08 02:14:00;;;;;;;4.92;2.60;;;;;;;17.23;60.07;99214.58;1754897;81;20998;-42
2022/06/08 02:16:52;;;;;;;4.35;2.70;;;;;;;17.25;60.13;99210.07;1754909;81;21021;-42
2022/06/08 02:19:47;;;;;;;3.87;2.83;;;;;;;17.28;60.16;99218.87;1755095;81;21014;-42
2022/06/08 02:22:27;;;;;;;3.92;2.80;;;;;;;17.29;60.21;99217.66;1755033;81;20975;-42
2022/06/08 02:25:15;;;;;;;3.65;2.77;;;;;;;17.27;60.26;99215.34;1749514;81;21248;-42
2022/06/08 02:27:48;;;;;;;6.67;3.10;;;;;;;17.27;60.08;99215.34;1754875;81;21051;-41
2022/06/08 02:30:19;;;;;;;3.42;2.80;;;;;;;17.25;60.08;99219.08;1754411;81;21041;-42
2022/06/08 02:35:45;;;;;;;4.08;2.90;;;;;;;17.23;60.29;99215.20;1754022;81;21043;-42
2022/06/08 02:38:16;;;;;;;5.58;3.10;;;;;;;17.21;60.40;99221.66;1749841;82;21148;-42
2022/06/08 02:40:49;;;;;;;6.42;3.50;;;;;;;17.19;60.44;99224.02;1750110;82;21031;-42
2022/06/08 02:43:21;;;;;;;5.25;3.10;;;;;;;17.18;60.48;99221.12;1749889;82;21006;-42
2022/06/08 02:46:10;;;;;;;4.97;3.22;;;;;;;17.16;60.60;99218.78;1749301;82;21022;-41
2022/06/08 02:48:38;;;;;;;5.05;3.35;;;;;;;17.16;60.64;99223.48;1749652;82;21540;-42
2022/06/08 02:51:05;;;;;;;3.15;2.60;;;;;;;17.14;60.75;99220.35;1749297;82;21133;-42
2022/06/08 02:53:45;;;;;;;7.72;2.98;;;;;;;17.18;60.60;99222.48;1744517;82;21086;-42
2022/06/08 02:56:32;;;;;;;2.95;2.55;;;;;;;17.26;60.32;99223.97;1748848;82;21386;-42
2022/06/08 02:59:09;;;;;;;6.80;2.97;;;;;;;17.31;60.53;99223.52;1749794;82;21014;-42
2022/06/08 03:01:53;;;;;;;4.17;3.17;;;;;;;17.33;60.56;99224.66;1749352;82;21633;-42
2022/06/08 03:04:30;;;;;;;4.22;3.15;;;;;;;17.36;60.42;99222.48;1749621;82;21544;-42
2022/06/08 03:07:02;;;;;;;4.83;3.45;;;;;;;17.39;60.23;99223.03;1749599;82;21083;-42
2022/06/08 03:09:31;;;;;;;4.37;3.17;;;;;;;17.44;60.06;99219.06;1747916;82;20963;-42
2022/06/08 03:12:09;;;;;;;5.30;3.43;;;;;;;17.48;59.92;99223.91;1749605;82;21010;-42
2022/06/08 03:14:36;;;;;;;4.78;3.22;;;;;;;17.50;60.07;99224.28;1744076;82;21563;-42
2022/06/08 03:17:07;;;;;;;5.92;3.08;;;;;;;17.51;60.43;99223.11;1749216;82;21156;-42
2022/06/08 03:19:35;;;;;;;4.37;3.20;;;;;;;17.54;60.68;99229.13;1749259;82;21051;-42
2022/06/08 03:22:05;;;;;;;5.87;3.30;;;;;;;17.58;60.69;99224.38;1749253;82;21033;-42
2022/06/08 03:24:32;;;;;;;6.42;3.30;;;;;;;17.62;60.58;99227.88;1749056;82;21019;-42
2022/06/08 03:27:03;;;;;;;5.42;3.50;;;;;;;17.67;60.86;99223.32;1749187;82;21098;-43
2022/06/08 03:29:33;;;;;;;3.15;2.60;;;;;;;17.74;61.07;99221.88;1749081;82;20978;-43
2022/06/08 03:32:00;;;;;;;5.05;2.95;;;;;;;17.87;61.23;99225.43;1749184;82;21548;-42
2022/06/08 03:34:29;;;;;;;3.80;3.02;;;;;;;17.99;61.24;99223.52;1749107;82;21026;-42
2022/06/08 03:36:57;;;;;;;4.45;3.22;;;;;;;18.07;61.46;99225.75;1744303;82;20990;-42
2022/06/08 03:39:25;;;;;;;4.05;3.00;;;;;;;18.16;61.33;99222.49;1749222;82;21054;-42
2022/06/08 03:41:53;;;;;;;4.45;3.47;;;;;;;18.26;61.25;99227.05;1749555;82;21010;-43
2022/06/08 03:44:21;;;;;;;4.72;3.25;;;;;;;18.34;61.46;99226.38;1749326;82;21030;-43
2022/06/08 03:46:56;;;;;;;4.67;3.15;;;;;;;18.40;61.49;99228.22;1749352;82;20959;-42
2022/06/08 03:49:25;;;;;;;6.17;3.70;;;;;;;18.46;61.60;99223.82;1748164;82;21482;-42
2022/06/08 03:51:54;;;;;;;4.58;3.42;;;;;;;18.51;61.83;99228.84;1749559;82;21050;-42
2022/06/08 03:54:24;;;;;;;4.15;3.17;;;;;;;18.58;60.80;99224.66;1749387;82;21239;-42
2022/06/08 03:56:54;;;;;;;3.47;3.05;;;;;;;18.65;59.88;99226.50;1749560;82;21078;-42
2022/06/08 03:59:24;;;;;;;3.52;3.15;;;;;;;18.71;59.53;99230.92;1749318;82;21572;-42
2022/06/08 04:01:51;;;;;;;6.35;2.92;;;;;;;18.79;59.93;99226.86;1749732;82;20971;-42
2022/06/08 04:04:19;;;;;;;2.67;2.30;;;;;;;18.86;59.71;99239.12;1749413;82;21047;-42
2022/06/08 04:06:47;;;;;;;4.05;2.55;;;;;;;18.91;60.03;99237.27;1749426;82;21196;-42
2022/06/08 04:09:15;;;;;;;3.02;2.37;;;;;;;18.97;60.28;99239.72;1749202;82;21050;-42
2022/06/08 04:11:44;;;;;;;2.25;2.05;;;;;;;19.04;59.76;99236.84;1749509;82;26565;-42
2022/06/08 04:14:12;;;;;;;5.42;2.55;;;;;;;19.15;59.77;99235.28;1749470;82;21621;-42
2022/06/08 04:16:41;;;;;;;3.65;2.90;;;;;;;19.26;59.32;99232.53;1749664;82;20979;-43
2022/06/08 04:19:10;;;;;;;3.63;2.63;;;;;;;19.34;59.17;99231.20;1749601;82;23252;-42
2022/06/08 04:21:39;;;;;;;4.00;2.60;;;;;;;19.44;58.92;99232.22;1749585;82;21623;-42
2022/06/08 04:24:10;;;;;;;4.72;2.58;;;;;;;19.53;58.56;99242.06;1749651;82;21070;-42
2022/06/08 04:26:39;;;;;;;4.40;2.80;;;;;;;19.60;58.36;99240.56;1749467;82;21003;-42
2022/06/08 04:29:08;;;;;;;2.85;2.62;;;;;;;19.67;58.83;99236.88;1713742;83;21520;-43
2022/06/08 04:31:37;;;;;;;3.00;2.70;;;;;;;19.74;59.11;99242.25;1749298;82;21138;-42
2022/06/08 04:34:07;;;;;;;4.00;2.73;;;;;;;19.81;59.19;99240.72;1748044;82;21047;-42
2022/06/08 04:36:36;;;;;;;4.20;2.62;;;;;;;19.87;59.09;99235.67;1747158;82;21611;-43
2022/06/08 04:39:05;;;;;;;4.78;2.67;;;;;;;19.93;59.19;99244.21;1741236;82;21030;-42
2022/06/08 04:41:34;;;;;;;2.30;2.10;;;;;;;19.98;59.63;99236.84;1709518;83;21042;-42
2022/06/08 04:44:04;;;;;;;5.50;2.70;;;;;;;20.04;59.44;99244.77;1741296;82;21245;-42
2022/06/08 04:46:32;;;;;;;3.20;2.90;;;;;;;20.05;59.22;99246.30;1741322;82;21053;-42
2022/06/08 04:48:59;;;;;;;3.40;2.98;;;;;;;20.07;59.17;99242.53;1741420;82;21011;-43
2022/06/08 04:51:28;;;;;;;3.00;2.55;;;;;;;20.11;59.32;99243.23;1741434;82;21001;-42
2022/06/08 04:53:55;;;;;;;3.27;2.85;;;;;;;20.14;59.42;99246.49;1741380;82;21038;-42
2022/06/08 04:56:25;;;;;;;5.15;2.80;;;;;;;20.24;59.54;99249.62;1741390;82;21251;-42
2022/06/08 04:58:54;;;;;;;4.67;2.75;;;;;;;20.38;59.29;99250.70;1741550;82;20975;-42
2022/06/08 05:01:23;;;;;;;2.62;2.33;;;;;;;20.52;58.91;99246.09;1741788;82;20959;-43
2022/06/08 05:03:50;;;;;;;3.47;1.98;;;;;;;20.63;58.25;99250.13;1741255;82;21030;-42
2022/06/08 05:06:18;;;;;;;3.58;2.20;;;;;;;20.77;56.24;99255.91;1741104;82;21553;-43
2022/06/08 05:08:45;;;;;;;3.30;2.40;;;;;;;20.87;54.35;99252.12;1741435;82;21158;-43
2022/06/08 05:11:14;;;;;;;4.17;2.42;;;;;;;20.94;53.45;99253.33;1741495;82;21607;-43
2022/06/08 05:13:46;;;;;;;3.65;2.52;;;;;;;21.01;53.18;99244.13;1741380;82;21529;-42
2022/06/08 05:16:14;;;;;;;3.37;2.40;;;;;;;21.08;52.79;99246.08;1741462;82;20924;-43
2022/06/08 05:18:44;;;;;;;5.10;2.37;;;;;;;21.17;52.67;99243.51;1705778;83;21054;-43
2022/06/08 05:21:13;;;;;;;4.42;2.15;;;;;;;21.28;53.14;99248.75;1741250;82;21135;-43
2022/06/08 05:23:43;;;;;;;2.45;2.08;;;;;;;21.39;52.58;99249.86;1741397;82;20996;-43
2022/06/08 05:26:12;;;;;;;3.70;2.00;;;;;;;21.49;51.26;99246.03;1705575;83;20981;-43
2022/06/08 05:28:41;;;;;;;3.27;1.92;;;;;;;21.60;50.39;99243.73;1741565;82;20927;-43
2022/06/08 05:31:09;;;;;;;2.45;2.17;;;;;;;21.72;50.53;99245.78;1741132;82;21478;-43
2022/06/08 05:33:38;;;;;;;2.63;2.13;;;;;;;21.83;50.38;99246.26;1741509;82;21815;-43
2022/06/08 05:36:07;;;;;;;;;;;;;;;21.96;50.07;99247.09;1742400;82;20939;-43
2022/06/08 05:38:35;;;;;;;2.75;2.00;;;;;;;22.09;50.10;99250.63;1741212;82;20210;-43
2022/06/08 05:41:03;;;;;;;5.35;2.30;;;;;;;22.14;49.84;99245.77;1741359;82;20943;-43
2022/06/08 05:43:31;;;;;;;4.37;2.15;;;;;;;22.27;50.31;99246.58;1741164;82;21070;-43
2022/06/08 05:45:59;;;;;;;2.40;2.10;;;;;;;22.39;50.00;99247.95;1741404;82;21172;-43
2022/06/08 05:48:28;;;;;;;2.37;2.17;;;;;;;22.52;49.89;99246.56;1741422;82;21038;-43
2022/06/08 05:50:57;;;;;;;3.08;2.08;;;;;;;22.61;49.13;99245.28;1705632;83;21061;-43
2022/06/08 05:53:25;;;;;;;4.95;2.10;;;;;;;22.72;49.33;99244.38;1740578;82;21633;-43
2022/06/08 05:55:52;;;;;;;4.05;1.82;;;;;;;22.82;48.46;99250.77;1732917;82;21599;-43
2022/06/08 05:58:19;;;;;;;2.67;1.65;;;;;;;22.92;47.72;99239.98;1732909;82;21140;-43
2022/06/08 06:00:49;;;;;;;2.95;1.45;;;;;;;23.04;46.49;99238.41;1733122;82;21016;-43
2022/06/08 06:03:17;;;;;;;2.92;1.77;;;;;;;23.15;46.50;99233.27;1669912;86;21034;-43
2022/06/08 06:05:45;;;;;;;3.65;1.60;;;;;;;23.26;46.28;99235.84;1733151;82;20947;-43
2022/06/08 06:08:13;;;;;;;2.00;1.55;;;;;;;23.38;46.14;99235.65;1669769;86;21695;-43
2022/06/08 06:10:46;;;;;;;1.55;1.42;;;;;;;23.49;45.72;99234.67;1669582;85;21280;-43
2022/06/08 06:13:18;;;;;;;3.08;1.70;;;;;;;23.58;45.91;99230.58;1651032;85;21542;-43
2022/06/08 06:15:51;;;;;;;1.87;1.60;;;;;;;23.70;45.59;99229.77;1704989;84;20934;-43
2022/06/08 06:18:19;;;;;;;3.60;1.85;;;;;;;23.82;44.86;99223.98;1705035;84;21040;-43
2022/06/08 06:20:49;;;;;;;3.70;1.70;;;;;;;23.93;44.11;99226.35;1704210;84;21029;-43
2022/06/08 06:23:35;;;;;;;9.03;1.90;;;;;;;24.04;44.29;99219.80;1705223;84;21242;-43
2022/06/08 06:26:04;;;;;;;6.45;1.60;;;;;;;24.15;43.15;99221.56;1658757;84;21025;-43
2022/06/08 06:28:45;;;;;;;5.35;1.50;;;;;;;24.25;43.03;99219.02;1703840;83;21543;-43
2022/06/08 06:31:21;;;;;;;1.90;1.10;;;;;;;24.35;42.51;99219.20;1695594;84;21093;-43
2022/06/08 06:33:50;;;;;;;1.80;1.50;;;;;;;24.44;41.57;99216.48;1704257;83;21089;-43
2022/06/08 06:36:18;;;;;;;2.17;1.60;;;;;;;24.54;41.95;99219.45;1705351;84;21205;-43
2022/06/08 06:38:45;;;;;;;4.72;1.77;;;;;;;24.63;40.92;99226.40;1717113;83;20949;-43
2022/06/08 06:41:14;;;;;;;3.62;1.77;;;;;;;24.69;41.14;99222.38;1718790;83;21087;-43
2022/06/08 06:43:42;;;;;;;2.17;1.37;;;;;;;24.77;41.42;99227.04;1718773;83;21100;-43
2022/06/08 06:46:20;;;;;;;2.20;1.40;;;;;;;24.85;39.99;99219.97;1604214;89;21670;-43
2022/06/08 06:49:05;;;;;;;2.12;1.55;;;;;;;24.93;40.04;99218.48;1718734;83;21132;-43
2022/06/08 06:51:34;;;;;;;1.80;1.32;;;;;;;25.01;39.75;99223.27;1718631;83;21523;-43
2022/06/08 06:54:03;;;;;;;4.22;1.50;;;;;;;25.08;40.16;99223.56;1718754;83;21047;-43
2022/06/08 06:56:32;;;;;;;3.50;1.40;;;;;;;25.14;39.47;99221.73;1718949;83;20945;-43
2022/06/08 06:59:01;;;;;;;1.70;1.50;;;;;;;25.22;40.18;99220.21;1718464;82;21029;-44
2022/06/08 07:01:31;;;;;;;4.65;1.60;;;;;;;25.30;39.66;99217.27;1718636;83;21235;-43
2022/06/08 07:03:58;;;;;;;3.25;1.30;;;;;;;25.40;39.51;99216.66;1718637;83;21025;-43
2022/06/08 07:06:29;;;;;;;2.50;1.42;;;;;;;25.47;39.20;99217.10;1718766;83;21551;-43
2022/06/08 07:08:59;;;;;;;3.47;1.17;;;;;;;25.60;37.46;99217.59;1718693;83;21008;-43
2022/06/08 07:11:35;;;;;;;2.90;1.20;;;;;;;25.68;37.25;99216.81;1718193;83;21519;-43
2022/06/08 07:14:14;;;;;;;3.92;1.25;;;;;;;25.77;37.47;99218.79;1703885;83;21269;-43
2022/06/08 07:16:41;;;;;;;1.37;1.15;;;;;;;25.87;37.59;99215.53;1718797;83;20986;-43
2022/06/08 07:19:09;;;;;;;3.20;1.20;;;;;;;25.98;36.10;99213.66;1718756;83;21044;-43
2022/06/08 07:21:37;;;;;;;1.87;1.40;;;;;;;26.09;36.04;99208.39;1718777;83;21642;-43
2022/06/08 07:24:06;;;;;;;2.05;1.30;;;;;;;26.19;35.79;99209.87;1718991;83;21044;-43
2022/06/08 07:26:34;;;;;;;2.10;1.30;;;;;;;26.30;37.15;99212.18;1719049;83;21184;-43
2022/06/08 07:29:01;;;;;;;2.17;1.40;;;;;;;26.46;37.08;99213.81;1718769;83;21495;-43
2022/06/08 07:31:28;;;;;;;3.75;1.22;;;;;;;26.55;33.72;99215.93;1718843;83;21017;-43
2022/06/08 07:33:56;;;;;;;3.15;1.30;;;;;;;26.55;34.61;99217.32;1718776;83;21045;-43
2022/06/08 07:36:23;;;;;;;3.17;1.20;;;;;;;26.58;34.77;99212.81;1718641;83;21135;-43
2022/06/08 07:38:50;;;;;;;2.47;1.40;;;;;;;26.66;34.59;99216.80;1707991;83;23110;-43
2022/06/08 07:41:19;;;;;;;3.95;1.57;;;;;;;26.76;33.53;99212.73;1705149;84;21536;-43
2022/06/08 07:43:47;;;;;;;2.50;1.40;;;;;;;26.87;34.06;99206.03;1705039;84;21046;-43
2022/06/08 07:46:14;;;;;;;1.82;1.30;;;;;;;27.01;33.68;99210.13;1705045;84;20934;-43
2022/06/08 07:51:26;;;;;;;2.60;1.57;;;;;;;27.27;33.26;99213.16;1705027;84;21146;-43
2022/06/08 07:53:54;;;;;;;1.67;1.27;;;;;;;27.39;32.13;99217.09;1705090;84;20974;-43
2022/06/08 07:56:22;;;;;;;1.80;1.50;;;;;;;27.56;32.20;99210.46;1705098;84;21090;-43
2022/06/08 07:58:49;;;;;;;2.58;1.40;;;;;;;27.76;32.09;99213.36;1705209;84;21025;-43
2022/06/08 08:01:17;;;;;;;1.35;1.25;;;;;;;27.98;32.39;99205.38;1705133;84;21025;-43
2022/06/08 08:03:44;;;;;;;2.22;1.40;;;;;;;28.10;31.67;99210.52;1705148;84;21235;-43
2022/06/08 08:06:11;;;;;;;2.67;1.47;;;;;;;28.15;32.09;99211.27;1704912;84;21478;-43
2022/06/08 08:08:39;;;;;;;2.40;1.40;;;;;;;28.22;31.62;99211.50;1705190;84;20973;-43
2022/06/08 08:11:07;;;;;;;1.95;1.12;;;;;;;28.29;31.69;99211.86;1705158;84;21033;-44
2022/06/08 08:13:36;;;;;;;2.67;1.30;;;;;;;28.43;32.04;99204.09;1705158;84;21030;-43
2022/06/08 08:16:05;;;;;;;;;;;;;;;28.57;32.16;99208.09;1707698;84;23186;-43
2022/06/08 08:18:32;;;;;;;5.62;1.47;;;;;;;28.67;31.88;99209.50;1705555;84;20156;-43
2022/06/08 08:21:00;;;;;;;2.98;1.35;;;;;;;28.63;31.24;99208.94;1705505;84;21045;-43
2022/06/08 08:23:27;;;;;;;2.12;1.30;;;;;;;28.60;31.84;99205.74;1705584;84;20918;-43
2022/06/08 08:25:54;;;;;;;2.60;1.50;;;;;;;28.59;32.17;99204.20;1705427;84;21045;-43
2022/06/08 08:28:22;;;;;;;1.70;1.40;;;;;;;28.62;31.72;99207.40;1705191;84;21163;-43
2022/06/08 08:30:49;;;;;;;2.45;1.50;;;;;;;28.62;30.79;99212.98;1705387;84;21014;-44
2022/06/08 08:33:17;;;;;;;5.15;1.50;;;;;;;28.53;30.26;99204.12;1705261;84;21092;-44
2022/06/08 08:35:45;;;;;;;2.12;1.47;;;;;;;28.47;31.71;99201.86;1705333;84;21088;-43
2022/06/08 08:38:13;;;;;;;1.92;1.57;;;;;;;28.52;31.32;99202.57;1710150;83;20981;-43
2022/06/08 08:40:55;;;;;;;5.97;1.70;;;;;;;28.56;31.71;99197.44;1718975;83;21213;-44
2022/06/08 08:43:26;;;;;;;2.67;1.40;;;;;;;28.62;31.35;99198.26;1718477;83;20937;-43
2022/06/08 08:46:34;;;;;;;1.77;1.45;;;;;;;28.70;30.84;99189.02;1718977;83;21052;-44
2022/06/08 08:49:19;;;;;;;4.03;1.40;;;;;;;28.75;30.12;99185.56;1718805;83;20925;-43
2022/06/08 08:52:02;;;;;;;1.90;1.30;;;;;;;28.71;30.35;99184.20;1718642;83;21008;-43
2022/06/08 08:54:38;;;;;;;2.60;1.30;;;;;;;28.61;30.60;99182.15;1714563;83;21336;-43
2022/06/08 08:57:33;;;;;;;2.02;1.47;;;;;;;28.64;31.13;99183.98;1718524;83;20972;-43
2022/06/08 09:00:13;;;;;;;2.37;1.35;;;;;;;28.79;30.38;99180.54;1718130;83;21052;-44
2022/06/08 09:05:31;;;;;;;2.30;1.50;;;;;;;29.09;30.02;99178.37;1718716;83;21041;-44
2022/06/08 09:07:58;;;;;;;1.47;1.10;;;;;;;29.28;29.08;99178.83;1718881;83;21055;-43
2022/06/08 09:10:27;;;;;;;4.50;1.57;;;;;;;29.28;29.42;99190.00;1714078;83;20902;-44
2022/06/08 09:12:56;;;;;;;2.80;1.67;;;;;;;29.22;29.01;99179.39;1713369;83;21896;-44
2022/06/08 09:15:56;;;;;;;1.82;1.40;;;;;;;29.22;29.68;99181.56;1719072;83;20953;-43
2022/06/08 09:18:33;;;;;;;2.67;1.40;;;;;;;29.34;29.86;99179.67;1718809;83;21322;-44
2022/06/08 09:21:21;;;;;;;1.32;1.20;;;;;;;29.57;29.33;99176.49;1718946;83;21102;-43
2022/06/08 09:23:55;;;;;;;4.03;1.27;;;;;;;29.78;29.30;99160.55;1718591;83;21449;-44
2022/06/08 09:26:30;;;;;;;1.60;1.27;;;;;;;30.02;29.40;99172.07;1718240;83;21019;-43
2022/06/08 09:29:10;;;;;;;3.25;1.47;;;;;;;30.15;28.18;99166.22;1718571;83;21020;-43
2022/06/08 09:31:38;;;;;;;1.92;1.45;;;;;;;30.16;28.71;99167.73;1718597;83;21005;-43
2022/06/08 09:34:25;;;;;;;2.77;1.35;;;;;;;30.20;28.24;99166.89;1718981;83;21112;-43
2022/06/08 09:37:15;;;;;;;3.40;1.27;;;;;;;30.27;27.84;99161.45;1718749;83;21005;-43
2022/06/08 09:39:44;;;;;;;1.98;1.40;;;;;;;30.38;27.07;99162.16;1686000;83;21021;-43
2022/06/08 09:42:56;;;;;;;2.80;1.35;;;;;;;30.42;27.42;99154.30;1685650;83;21627;-43
2022/06/08 09:45:52;;;;;;;2.87;1.57;;;;;;;30.46;27.70;99157.02;1651084;84;21085;-45
2022/06/08 09:52:08;;;;;;;1.80;1.27;;;;;;;30.52;27.75;99149.43;1713134;83;21598;-43
2022/06/08 09:54:54;;;;;;;1.57;1.47;;;;;;;30.60;28.44;99151.88;1708248;83;21033;-43
2022/06/08 09:57:42;;;;;;;3.83;1.40;;;;;;;30.64;28.07;99153.80;1712839;83;21603;-43
2022/06/08 10:00:36;;;;;;;1.80;1.30;;;;;;;30.50;27.08;99148.41;1685572;83;21608;-43
2022/06/08 10:03:19;;;;;;;1.65;1.52;;;;;;;30.22;27.52;99150.36;1713198;83;21098;-43
2022/06/08 10:06:01;;;;;;;2.70;1.50;;;;;;;30.04;27.54;99147.19;1713012;83;21061;-43
2022/06/08 10:08:43;;;;;;;3.60;1.35;;;;;;;29.95;27.55;99146.75;1713134;83;21519;-43
2022/06/08 10:11:37;;;;;;;1.55;1.30;;;;;;;29.82;27.65;99149.16;1713009;83;20958;-43
2022/06/08 10:14:16;;;;;;;2.30;1.42;;;;;;;29.71;28.55;99141.45;1713118;83;21096;-43
2022/06/08 10:16:51;;;;;;;1.65;1.22;;;;;;;29.70;28.44;99137.74;1712833;83;23181;-43
2022/06/08 10:19:34;;;;;;;2.58;1.32;;;;;;;29.84;28.32;99131.25;1712986;83;21046;-43
2022/06/08 10:22:02;;;;;;;2.35;1.40;;;;;;;29.98;28.88;99128.20;1711064;83;21002;-43
2022/06/08 10:24:45;;;;;;;2.17;1.40;;;;;;;30.12;29.05;99129.45;1713544;83;21680;-43
2022/06/08 10:27:17;;;;;;;1.98;1.30;;;;;;;30.20;29.16;99134.73;1712945;83;21107;-43
2022/06/08 10:29:55;;;;;;;2.30;1.40;;;;;;;30.33;28.43;99120.94;1713100;83;21126;-43
2022/06/08 10:32:29;;;;;;;1.82;1.30;;;;;;;30.55;28.26;99123.87;1712541;83;20961;-43
2022/06/08 10:35:00;;;;;;;2.00;1.47;;;;;;;30.76;28.17;99119.64;1713148;83;20961;-43
2022/06/08 10:37:37;;;;;;;4.55;1.30;;;;;;;30.87;28.11;99123.89;1713061;83;21024;-43
2022/06/08 10:40:12;;;;;;;3.10;1.75;;;;;;;30.87;28.08;99120.33;1717932;83;21044;-43
2022/06/08 10:42:40;;;;;;;2.67;1.30;;;;;;;30.84;27.57;99121.34;1718555;83;21124;-43
2022/06/08 10:45:32;;;;;;;2.58;1.32;;;;;;;30.83;26.89;99117.78;1718840;83;20946;-43
2022/06/08 10:48:19;;;;;;;3.00;1.37;;;;;;;30.87;28.26;99120.33;1718956;83;22108;-43
2022/06/08 10:50:48;;;;;;;3.47;1.50;;;;;;;30.80;27.61;99118.77;1718990;83;21049;-43
2022/06/08 10:56:33;;;;;;;2.20;1.45;;;;;;;30.57;27.65;99109.52;1718719;83;21137;-43
2022/06/08 10:59:10;;;;;;;1.82;1.40;;;;;;;30.38;27.55;99110.41;1718598;83;21001;-43
2022/06/08 11:02:07;;;;;;;1.50;1.40;;;;;;;30.20;28.58;99108.80;1718812;83;20998;-43
2022/06/08 11:04:55;;;;;;;1.57;1.20;;;;;;;30.17;28.67;99105.58;1719007;83;21040;-43
2022/06/08 11:07:23;;;;;;;2.02;1.30;;;;;;;30.35;28.23;99108.00;1718638;83;21076;-43
2022/06/08 11:09:57;;;;;;;2.20;1.37;;;;;;;30.77;27.74;99110.63;1718600;83;21131;-43
2022/06/08 11:12:39;;;;;;;1.42;1.32;;;;;;;31.25;26.82;99116.89;1718693;83;21020;-43
2022/06/08 11:15:17;;;;;;;1.98;1.42;;;;;;;31.60;25.61;99107.28;1693289;83;21047;-43
2022/06/08 11:18:01;;;;;;;3.90;1.40;;;;;;;31.85;25.45;99104.23;1705374;83;21099;-43
2022/06/08 11:20:39;;;;;;;1.52;1.12;;;;;;;32.09;24.98;99099.47;1692448;83;21029;-43
2022/06/08 11:23:23;;;;;;;2.25;1.57;;;;;;;32.45;25.35;99099.01;1718663;83;21134;-43
2022/06/08 11:26:08;;;;;;;1.45;1.30;;;;;;;32.77;24.51;99092.41;1692554;83;21543;-43
2022/06/08 11:28:44;;;;;;;1.70;1.50;;;;;;;33.12;24.26;99095.90;1710635;83;20993;-43
2022/06/08 11:31:33;;;;;;;1.70;1.37;;;;;;;33.37;23.40;99086.31;1718625;83;21028;-43
2022/06/08 11:34:20;;;;;;;6.50;1.30;;;;;;;33.53;22.79;99092.45;1718707;83;21026;-43
2022/06/08 11:36:58;;;;;;;1.47;1.17;;;;;;;33.52;23.10;99086.70;1718791;83;21220;-43
2022/06/08 11:39:48;;;;;;;2.47;1.57;;;;;;;33.63;23.42;99081.64;1718613;83;21001;-44
2022/06/08 11:42:28;;;;;;;1.50;1.07;;;;;;;33.94;23.04;99080.34;1718948;83;20997;-44
2022/06/08 11:45:22;;;;;;;1.72;1.20;;;;;;;34.34;22.77;99077.27;1718753;83;21076;-44
2022/06/08 11:48:00;;;;;;;1.65;1.45;;;;;;;34.56;22.15;99078.42;1719021;83;21041;-44
2022/06/08 11:50:44;;;;;;;3.27;1.30;;;;;;;34.49;22.20;99081.82;1717993;83;21148;-44
2022/06/08 11:53:29;;;;;;;2.02;1.10;;;;;;;34.24;22.90;99080.32;1718833;83;21032;-43
2022/06/08 11:56:29;;;;;;;2.33;1.40;;;;;;;33.82;22.57;99076.89;1718947;83;21054;-44
2022/06/08 11:58:59;;;;;;;3.08;1.27;;;;;;;33.33;22.60;99078.05;1717687;83;21534;-43
2022/06/08 12:01:46;;;;;;;2.95;1.20;;;;;;;32.80;23.18;99078.73;1718510;83;21526;-43
2022/06/08 12:04:17;;;;;;;2.65;1.20;;;;;;;32.43;24.01;99071.35;1718427;83;21131;-43
2022/06/08 12:06:45;;;;;;;2.92;1.20;;;;;;;32.00;24.59;99071.67;1718918;83;20981;-43
2022/06/08 12:09:23;;;;;;;1.60;1.17;;;;;;;31.74;25.30;99074.02;1718611;83;21070;-43
2022/06/08 12:12:18;;;;;;;2.92;1.20;;;;;;;31.53;26.27;99068.52;1718528;83;21527;-43
2022/06/08 12:14:45;;;;;;;2.98;1.42;;;;;;;31.30;26.52;99069.92;1718834;83;21868;-43
2022/06/08 12:17:19;;;;;;;2.50;1.37;;;;;;;31.21;25.60;99063.17;1692256;83;21055;-43
2022/06/08 12:19:54;;;;;;;1.72;1.17;;;;;;;31.36;26.54;99065.73;1718575;83;21467;-43
2022/06/08 12:22:29;;;;;;;1.67;1.20;;;;;;;31.79;25.47;99066.25;1718834;83;21012;-43
2022/06/08 12:25:19;;;;;;;1.57;1.00;;;;;;;32.32;25.32;99057.48;1719154;82;20985;-43